Terminal Aerodrome Forecast
Issued by NWS

Home | Current Version | Previous Version | Text Only | Print | Product List | Glossary On
Versions: 1 2 3 4 5 6 7 8 9 10 11 12 13 14 15 16 17 18 19 20 21 22 23 24 25
000
FTUS43 KMQT 190500
TAFSAW
TAF
KSAW 190534Z 1906/2006 00000KT 3SM BR SCT200
     FM191000 14004KT P6SM BKN100
     FM191500 17011G17KT P6SM BKN080
     FM191800 18018G25KT P6SM BKN080
     FM200200 18012KT 6SM -SHRA OVC050
      AMD LTD TO CLD VIS AND WIND TIL 191000=

USA.gov is the U.S. government's official web portal to all federal, state and local government web resources and services.